sensor_id;sensor_type;location;lat;lon;timestamp;P1;durP1;ratioP1;P2;durP2;ratioP2
20140;SDS011;10231;47.702;9.826;2023-03-24T00:00:16;5.00;;;4.50;;
20140;SDS011;10231;47.702;9.826;2023-03-24T00:02:44;4.87;;;4.30;;
20140;SDS011;10231;47.702;9.826;2023-03-24T00:05:11;4.73;;;3.83;;
20140;SDS011;10231;47.702;9.826;2023-03-24T00:07:39;5.73;;;4.37;;
20140;SDS011;10231;47.702;9.826;2023-03-24T00:10:05;5.27;;;4.03;;
20140;SDS011;10231;47.702;9.826;2023-03-24T00:12:34;4.33;;;4.00;;
20140;SDS011;10231;47.702;9.826;2023-03-24T00:15:03;4.73;;;4.07;;
20140;SDS011;10231;47.702;9.826;2023-03-24T00:17:31;4.73;;;4.23;;
20140;SDS011;10231;47.702;9.826;2023-03-24T00:19:59;5.57;;;3.90;;
20140;SDS011;10231;47.702;9.826;2023-03-24T00:22:26;4.47;;;4.07;;
20140;SDS011;10231;47.702;9.826;2023-03-24T00:24:52;4.07;;;3.77;;
20140;SDS011;10231;47.702;9.826;2023-03-24T00:27:18;6.67;;;4.37;;
20140;SDS011;10231;47.702;9.826;2023-03-24T00:29:45;5.60;;;5.07;;
20140;SDS011;10231;47.702;9.826;2023-03-24T00:32:10;5.57;;;5.07;;
20140;SDS011;10231;47.702;9.826;2023-03-24T00:34:36;7.30;;;5.13;;
20140;SDS011;10231;47.702;9.826;2023-03-24T00:37:02;4.93;;;4.57;;
20140;SDS011;10231;47.702;9.826;2023-03-24T00:39:29;6.30;;;5.17;;
20140;SDS011;10231;47.702;9.826;2023-03-24T00:41:55;6.63;;;5.30;;
20140;SDS011;10231;47.702;9.826;2023-03-24T00:44:22;5.50;;;5.00;;
20140;SDS011;10231;47.702;9.826;2023-03-24T00:46:49;7.03;;;4.43;;
20140;SDS011;10231;47.702;9.826;2023-03-24T00:49:22;5.80;;;5.00;;
20140;SDS011;10231;47.702;9.826;2023-03-24T00:54:39;5.23;;;4.73;;
20140;SDS011;10231;47.702;9.826;2023-03-24T00:57:06;4.80;;;4.37;;
20140;SDS011;10231;47.702;9.826;2023-03-24T00:59:32;6.47;;;5.00;;
20140;SDS011;10231;47.702;9.826;2023-03-24T01:02:06;7.50;;;5.77;;
20140;SDS011;10231;47.702;9.826;2023-03-24T01:04:38;5.13;;;4.73;;
20140;SDS011;10231;47.702;9.826;2023-03-24T01:07:05;4.43;;;4.03;;
20140;SDS011;10231;47.702;9.826;2023-03-24T01:09:33;4.23;;;3.83;;
20140;SDS011;10231;47.702;9.826;2023-03-24T01:12:00;4.10;;;3.80;;
20140;SDS011;10231;47.702;9.826;2023-03-24T01:14:28;4.63;;;4.20;;
20140;SDS011;10231;47.702;9.826;2023-03-24T01:16:54;4.40;;;4.10;;
20140;SDS011;10231;47.702;9.826;2023-03-24T01:19:20;3.73;;;3.43;;
20140;SDS011;10231;47.702;9.826;2023-03-24T01:21:45;4.57;;;4.20;;
20140;SDS011;10231;47.702;9.826;2023-03-24T01:24:12;4.17;;;3.70;;
20140;SDS011;10231;47.702;9.826;2023-03-24T01:26:38;3.87;;;3.60;;
20140;SDS011;10231;47.702;9.826;2023-03-24T01:29:03;4.57;;;4.17;;
20140;SDS011;10231;47.702;9.826;2023-03-24T01:31:29;4.20;;;3.80;;
20140;SDS011;10231;47.702;9.826;2023-03-24T01:33:55;4.63;;;4.00;;
20140;SDS011;10231;47.702;9.826;2023-03-24T01:36:21;6.30;;;4.60;;
20140;SDS011;10231;47.702;9.826;2023-03-24T01:38:46;4.40;;;4.10;;
20140;SDS011;10231;47.702;9.826;2023-03-24T01:41:12;5.50;;;4.93;;
20140;SDS011;10231;47.702;9.826;2023-03-24T01:43:37;4.47;;;4.07;;
20140;SDS011;10231;47.702;9.826;2023-03-24T01:48:45;4.63;;;4.03;;
20140;SDS011;10231;47.702;9.826;2023-03-24T01:51:32;10.37;;;7.30;;
20140;SDS011;10231;47.702;9.826;2023-03-24T01:54:07;9.33;;;7.60;;
20140;SDS011;10231;47.702;9.826;2023-03-24T01:56:34;7.50;;;5.67;;
20140;SDS011;10231;47.702;9.826;2023-03-24T01:59:04;8.33;;;5.70;;
20140;SDS011;10231;47.702;9.826;2023-03-24T02:01:32;6.97;;;5.90;;
20140;SDS011;10231;47.702;9.826;2023-03-24T02:03:58;7.20;;;5.30;;
20140;SDS011;10231;47.702;9.826;2023-03-24T02:06:27;5.27;;;4.73;;
20140;SDS011;10231;47.702;9.826;2023-03-24T02:08:54;5.90;;;4.60;;
20140;SDS011;10231;47.702;9.826;2023-03-24T02:11:22;5.67;;;4.17;;
20140;SDS011;10231;47.702;9.826;2023-03-24T02:13:51;5.07;;;4.50;;
20140;SDS011;10231;47.702;9.826;2023-03-24T02:20:24;4.93;;;4.43;;
20140;SDS011;10231;47.702;9.826;2023-03-24T02:31:54;6.40;;;4.37;;
20140;SDS011;10231;47.702;9.826;2023-03-24T02:48:19;4.17;;;3.77;;
20140;SDS011;10231;47.702;9.826;2023-03-24T02:55:59;5.80;;;4.03;;
20140;SDS011;10231;47.702;9.826;2023-03-24T03:01:14;5.77;;;3.97;;
20140;SDS011;10231;47.702;9.826;2023-03-24T03:03:45;5.70;;;4.97;;
20140;SDS011;10231;47.702;9.826;2023-03-24T03:06:23;4.50;;;4.10;;
20140;SDS011;10231;47.702;9.826;2023-03-24T03:08:52;5.10;;;4.40;;
20140;SDS011;10231;47.702;9.826;2023-03-24T03:11:21;4.40;;;4.00;;
20140;SDS011;10231;47.702;9.826;2023-03-24T03:13:47;5.97;;;3.60;;
20140;SDS011;10231;47.702;9.826;2023-03-24T03:16:24;4.53;;;3.80;;
20140;SDS011;10231;47.702;9.826;2023-03-24T03:19:02;4.40;;;4.00;;
20140;SDS011;10231;47.702;9.826;2023-03-24T03:21:34;4.87;;;4.20;;
20140;SDS011;10231;47.702;9.826;2023-03-24T03:24:13;4.73;;;4.33;;
20140;SDS011;10231;47.702;9.826;2023-03-24T03:26:43;4.87;;;4.17;;
20140;SDS011;10231;47.702;9.826;2023-03-24T03:29:14;4.57;;;4.17;;
20140;SDS011;10231;47.702;9.826;2023-03-24T03:31:50;5.47;;;4.70;;
20140;SDS011;10231;47.702;9.826;2023-03-24T03:37:33;7.67;;;5.67;;
20140;SDS011;10231;47.702;9.826;2023-03-24T03:40:08;6.10;;;5.60;;
20140;SDS011;10231;47.702;9.826;2023-03-24T03:42:55;5.37;;;4.83;;
20140;SDS011;10231;47.702;9.826;2023-03-24T03:45:21;5.90;;;5.30;;
20140;SDS011;10231;47.702;9.826;2023-03-24T03:47:47;5.67;;;5.17;;
20140;SDS011;10231;47.702;9.826;2023-03-24T03:50:12;6.13;;;5.63;;
20140;SDS011;10231;47.702;9.826;2023-03-24T03:52:38;5.80;;;5.20;;
20140;SDS011;10231;47.702;9.826;2023-03-24T03:55:05;6.03;;;5.43;;
20140;SDS011;10231;47.702;9.826;2023-03-24T03:57:32;7.40;;;5.80;;
20140;SDS011;10231;47.702;9.826;2023-03-24T04:00:00;7.60;;;5.30;;
20140;SDS011;10231;47.702;9.826;2023-03-24T04:02:52;6.97;;;6.17;;
20140;SDS011;10231;47.702;9.826;2023-03-24T04:05:35;8.50;;;7.53;;
20140;SDS011;10231;47.702;9.826;2023-03-24T04:08:23;9.00;;;7.70;;
20140;SDS011;10231;47.702;9.826;2023-03-24T04:14:21;7.73;;;7.03;;
20140;SDS011;10231;47.702;9.826;2023-03-24T04:28:07;8.10;;;6.17;;
20140;SDS011;10231;47.702;9.826;2023-03-24T04:30:49;7.37;;;6.50;;
20140;SDS011;10231;47.702;9.826;2023-03-24T04:33:34;5.97;;;5.37;;
20140;SDS011;10231;47.702;9.826;2023-03-24T04:36:13;7.13;;;6.43;;
20140;SDS011;10231;47.702;9.826;2023-03-24T04:38:51;7.80;;;6.07;;
20140;SDS011;10231;47.702;9.826;2023-03-24T04:41:19;6.53;;;5.93;;
20140;SDS011;10231;47.702;9.826;2023-03-24T04:43:46;7.30;;;6.60;;
20140;SDS011;10231;47.702;9.826;2023-03-24T04:46:12;8.60;;;6.67;;
20140;SDS011;10231;47.702;9.826;2023-03-24T04:48:42;7.30;;;6.60;;
20140;SDS011;10231;47.702;9.826;2023-03-24T04:51:09;6.77;;;6.13;;
20140;SDS011;10231;47.702;9.826;2023-03-24T04:53:36;7.20;;;6.60;;
20140;SDS011;10231;47.702;9.826;2023-03-24T04:56:06;7.50;;;6.80;;
20140;SDS011;10231;47.702;9.826;2023-03-24T04:58:58;7.80;;;7.10;;
20140;SDS011;10231;47.702;9.826;2023-03-24T05:01:25;9.30;;;6.03;;
20140;SDS011;10231;47.702;9.826;2023-03-24T05:03:54;7.13;;;6.43;;
20140;SDS011;10231;47.702;9.826;2023-03-24T05:06:23;6.63;;;5.97;;
20140;SDS011;10231;47.702;9.826;2023-03-24T05:08:49;6.63;;;5.93;;
20140;SDS011;10231;47.702;9.826;2023-03-24T05:11:16;6.87;;;6.17;;
20140;SDS011;10231;47.702;9.826;2023-03-24T05:13:45;6.70;;;5.90;;
20140;SDS011;10231;47.702;9.826;2023-03-24T05:16:11;8.70;;;6.43;;
20140;SDS011;10231;47.702;9.826;2023-03-24T05:18:37;7.77;;;6.73;;
20140;SDS011;10231;47.702;9.826;2023-03-24T05:21:03;7.17;;;6.47;;
20140;SDS011;10231;47.702;9.826;2023-03-24T05:23:29;8.43;;;7.30;;
20140;SDS011;10231;47.702;9.826;2023-03-24T05:25:54;7.43;;;6.73;;
20140;SDS011;10231;47.702;9.826;2023-03-24T05:28:20;7.17;;;6.47;;
20140;SDS011;10231;47.702;9.826;2023-03-24T05:30:45;9.53;;;7.23;;
20140;SDS011;10231;47.702;9.826;2023-03-24T05:33:11;7.97;;;6.83;;
20140;SDS011;10231;47.702;9.826;2023-03-24T05:35:37;8.97;;;8.07;;
20140;SDS011;10231;47.702;9.826;2023-03-24T05:38:02;11.10;;;7.97;;
20140;SDS011;10231;47.702;9.826;2023-03-24T05:40:28;9.87;;;7.87;;
20140;SDS011;10231;47.702;9.826;2023-03-24T05:42:53;10.13;;;7.93;;
20140;SDS011;10231;47.702;9.826;2023-03-24T05:45:19;8.87;;;7.97;;
20140;SDS011;10231;47.702;9.826;2023-03-24T05:47:45;10.10;;;7.73;;
20140;SDS011;10231;47.702;9.826;2023-03-24T05:50:12;9.00;;;7.83;;
20140;SDS011;10231;47.702;9.826;2023-03-24T05:52:37;9.57;;;7.40;;
20140;SDS011;10231;47.702;9.826;2023-03-24T05:55:03;8.53;;;7.40;;
20140;SDS011;10231;47.702;9.826;2023-03-24T05:57:29;8.30;;;7.43;;
20140;SDS011;10231;47.702;9.826;2023-03-24T05:59:55;10.20;;;8.80;;
20140;SDS011;10231;47.702;9.826;2023-03-24T06:02:22;7.60;;;6.87;;
20140;SDS011;10231;47.702;9.826;2023-03-24T06:04:48;7.20;;;6.50;;
20140;SDS011;10231;47.702;9.826;2023-03-24T06:07:15;7.87;;;7.07;;
20140;SDS011;10231;47.702;9.826;2023-03-24T06:09:42;8.10;;;7.27;;
20140;SDS011;10231;47.702;9.826;2023-03-24T06:12:11;9.10;;;6.87;;
20140;SDS011;10231;47.702;9.826;2023-03-24T06:14:37;7.70;;;6.90;;
20140;SDS011;10231;47.702;9.826;2023-03-24T06:17:03;6.67;;;6.03;;
20140;SDS011;10231;47.702;9.826;2023-03-24T06:19:29;6.63;;;5.93;;
20140;SDS011;10231;47.702;9.826;2023-03-24T06:21:56;6.67;;;5.90;;
20140;SDS011;10231;47.702;9.826;2023-03-24T06:24:24;6.43;;;5.83;;
20140;SDS011;10231;47.702;9.826;2023-03-24T06:26:51;8.63;;;6.10;;
20140;SDS011;10231;47.702;9.826;2023-03-24T06:29:16;6.37;;;5.80;;
20140;SDS011;10231;47.702;9.826;2023-03-24T06:31:43;9.20;;;6.27;;
20140;SDS011;10231;47.702;9.826;2023-03-24T06:34:09;6.60;;;5.90;;
20140;SDS011;10231;47.702;9.826;2023-03-24T06:36:35;6.80;;;6.10;;
20140;SDS011;10231;47.702;9.826;2023-03-24T06:39:01;9.20;;;6.47;;
20140;SDS011;10231;47.702;9.826;2023-03-24T06:41:30;6.57;;;5.90;;
20140;SDS011;10231;47.702;9.826;2023-03-24T06:43:56;7.10;;;6.37;;
20140;SDS011;10231;47.702;9.826;2023-03-24T06:46:21;7.93;;;7.13;;
20140;SDS011;10231;47.702;9.826;2023-03-24T06:48:47;8.17;;;7.37;;
20140;SDS011;10231;47.702;9.826;2023-03-24T06:51:13;7.33;;;6.60;;
20140;SDS011;10231;47.702;9.826;2023-03-24T06:53:38;7.80;;;7.10;;
20140;SDS011;10231;47.702;9.826;2023-03-24T06:56:05;7.70;;;6.37;;
20140;SDS011;10231;47.702;9.826;2023-03-24T06:58:31;7.07;;;6.40;;
20140;SDS011;10231;47.702;9.826;2023-03-24T07:00:58;6.40;;;5.90;;
20140;SDS011;10231;47.702;9.826;2023-03-24T07:03:25;6.83;;;6.17;;
20140;SDS011;10231;47.702;9.826;2023-03-24T07:05:50;6.63;;;6.03;;
20140;SDS011;10231;47.702;9.826;2023-03-24T07:08:16;5.90;;;5.20;;
20140;SDS011;10231;47.702;9.826;2023-03-24T07:10:43;5.60;;;5.10;;
20140;SDS011;10231;47.702;9.826;2023-03-24T07:13:09;5.50;;;4.97;;
20140;SDS011;10231;47.702;9.826;2023-03-24T07:15:35;4.90;;;4.47;;
20140;SDS011;10231;47.702;9.826;2023-03-24T07:18:01;5.47;;;4.97;;
20140;SDS011;10231;47.702;9.826;2023-03-24T07:20:27;5.70;;;5.20;;
20140;SDS011;10231;47.702;9.826;2023-03-24T07:22:55;8.50;;;5.27;;
20140;SDS011;10231;47.702;9.826;2023-03-24T07:25:22;6.33;;;5.57;;
20140;SDS011;10231;47.702;9.826;2023-03-24T07:27:50;5.93;;;5.33;;
20140;SDS011;10231;47.702;9.826;2023-03-24T07:30:18;5.53;;;5.00;;
20140;SDS011;10231;47.702;9.826;2023-03-24T07:32:44;7.23;;;5.87;;
20140;SDS011;10231;47.702;9.826;2023-03-24T07:35:10;6.60;;;5.30;;
20140;SDS011;10231;47.702;9.826;2023-03-24T07:37:37;5.40;;;4.90;;
20140;SDS011;10231;47.702;9.826;2023-03-24T07:40:03;6.23;;;5.63;;
20140;SDS011;10231;47.702;9.826;2023-03-24T07:42:31;6.10;;;5.60;;
20140;SDS011;10231;47.702;9.826;2023-03-24T07:44:57;6.40;;;5.27;;
20140;SDS011;10231;47.702;9.826;2023-03-24T07:47:22;5.63;;;5.00;;
20140;SDS011;10231;47.702;9.826;2023-03-24T07:49:48;5.43;;;4.93;;
20140;SDS011;10231;47.702;9.826;2023-03-24T07:52:14;5.50;;;4.70;;
20140;SDS011;10231;47.702;9.826;2023-03-24T07:54:40;5.40;;;4.90;;
20140;SDS011;10231;47.702;9.826;2023-03-24T07:57:05;5.97;;;5.30;;
20140;SDS011;10231;47.702;9.826;2023-03-24T07:59:31;6.57;;;5.60;;
20140;SDS011;10231;47.702;9.826;2023-03-24T08:01:58;5.67;;;5.17;;
20140;SDS011;10231;47.702;9.826;2023-03-24T08:04:23;5.47;;;4.60;;
20140;SDS011;10231;47.702;9.826;2023-03-24T08:06:50;5.97;;;4.60;;
20140;SDS011;10231;47.702;9.826;2023-03-24T08:09:17;5.27;;;4.67;;
20140;SDS011;10231;47.702;9.826;2023-03-24T08:11:43;4.43;;;4.03;;
20140;SDS011;10231;47.702;9.826;2023-03-24T08:14:08;4.50;;;4.00;;
20140;SDS011;10231;47.702;9.826;2023-03-24T08:16:34;5.33;;;4.87;;
20140;SDS011;10231;47.702;9.826;2023-03-24T08:19:00;5.70;;;5.00;;
20140;SDS011;10231;47.702;9.826;2023-03-24T08:21:25;4.67;;;4.27;;
20140;SDS011;10231;47.702;9.826;2023-03-24T08:23:51;6.50;;;4.83;;
20140;SDS011;10231;47.702;9.826;2023-03-24T08:26:17;5.07;;;4.53;;
20140;SDS011;10231;47.702;9.826;2023-03-24T08:28:42;6.23;;;5.03;;
20140;SDS011;10231;47.702;9.826;2023-03-24T08:31:08;4.70;;;4.27;;
20140;SDS011;10231;47.702;9.826;2023-03-24T08:33:34;4.63;;;4.23;;
20140;SDS011;10231;47.702;9.826;2023-03-24T08:36:00;6.53;;;4.63;;
20140;SDS011;10231;47.702;9.826;2023-03-24T08:38:25;5.80;;;5.07;;
20140;SDS011;10231;47.702;9.826;2023-03-24T08:40:55;5.63;;;5.10;;
20140;SDS011;10231;47.702;9.826;2023-03-24T08:43:22;5.10;;;4.63;;
20140;SDS011;10231;47.702;9.826;2023-03-24T08:45:49;5.70;;;4.93;;
20140;SDS011;10231;47.702;9.826;2023-03-24T08:48:15;6.23;;;5.37;;
20140;SDS011;10231;47.702;9.826;2023-03-24T08:50:41;6.10;;;5.50;;
20140;SDS011;10231;47.702;9.826;2023-03-24T08:53:07;6.97;;;6.27;;
20140;SDS011;10231;47.702;9.826;2023-03-24T08:55:33;8.20;;;6.77;;
20140;SDS011;10231;47.702;9.826;2023-03-24T08:58:01;7.03;;;6.10;;
20140;SDS011;10231;47.702;9.826;2023-03-24T09:00:27;5.87;;;5.37;;
20140;SDS011;10231;47.702;9.826;2023-03-24T09:02:53;6.17;;;5.63;;
20140;SDS011;10231;47.702;9.826;2023-03-24T09:05:20;6.37;;;5.77;;
20140;SDS011;10231;47.702;9.826;2023-03-24T09:07:47;6.47;;;5.87;;
20140;SDS011;10231;47.702;9.826;2023-03-24T09:10:14;6.77;;;5.43;;
20140;SDS011;10231;47.702;9.826;2023-03-24T09:12:40;6.87;;;6.17;;
20140;SDS011;10231;47.702;9.826;2023-03-24T09:15:08;7.77;;;4.93;;
20140;SDS011;10231;47.702;9.826;2023-03-24T09:17:35;6.20;;;5.60;;
20140;SDS011;10231;47.702;9.826;2023-03-24T09:20:01;8.00;;;5.27;;
20140;SDS011;10231;47.702;9.826;2023-03-24T09:22:29;6.73;;;6.03;;
20140;SDS011;10231;47.702;9.826;2023-03-24T09:24:54;6.93;;;5.60;;
20140;SDS011;10231;47.702;9.826;2023-03-24T09:27:20;7.27;;;5.77;;
20140;SDS011;10231;47.702;9.826;2023-03-24T09:29:47;5.67;;;5.10;;
20140;SDS011;10231;47.702;9.826;2023-03-24T09:32:12;6.23;;;5.20;;
20140;SDS011;10231;47.702;9.826;2023-03-24T09:34:38;6.60;;;6.00;;
20140;SDS011;10231;47.702;9.826;2023-03-24T09:37:04;6.90;;;6.30;;
20140;SDS011;10231;47.702;9.826;2023-03-24T09:39:31;5.90;;;5.40;;
20140;SDS011;10231;47.702;9.826;2023-03-24T09:41:59;6.17;;;5.67;;
20140;SDS011;10231;47.702;9.826;2023-03-24T09:44:28;5.83;;;5.33;;
20140;SDS011;10231;47.702;9.826;2023-03-24T09:47:02;6.00;;;5.40;;
20140;SDS011;10231;47.702;9.826;2023-03-24T09:49:45;5.93;;;4.97;;
20140;SDS011;10231;47.702;9.826;2023-03-24T09:52:13;6.40;;;5.83;;
20140;SDS011;10231;47.702;9.826;2023-03-24T09:57:21;7.23;;;5.37;;
20140;SDS011;10231;47.702;9.826;2023-03-24T09:59:53;6.30;;;5.80;;
20140;SDS011;10231;47.702;9.826;2023-03-24T10:02:19;6.30;;;5.73;;
20140;SDS011;10231;47.702;9.826;2023-03-24T10:04:46;6.40;;;5.80;;
20140;SDS011;10231;47.702;9.826;2023-03-24T10:09:59;5.70;;;5.20;;
20140;SDS011;10231;47.702;9.826;2023-03-24T10:12:34;10.30;;;5.90;;
20140;SDS011;10231;47.702;9.826;2023-03-24T10:20:19;7.50;;;6.80;;
20140;SDS011;10231;47.702;9.826;2023-03-24T10:25:50;6.30;;;5.70;;
20140;SDS011;10231;47.702;9.826;2023-03-24T10:28:22;6.40;;;5.53;;
20140;SDS011;10231;47.702;9.826;2023-03-24T10:30:52;7.43;;;5.90;;
20140;SDS011;10231;47.702;9.826;2023-03-24T10:33:21;6.23;;;4.87;;
20140;SDS011;10231;47.702;9.826;2023-03-24T10:36:04;6.20;;;5.60;;
20140;SDS011;10231;47.702;9.826;2023-03-24T10:38:33;6.20;;;5.70;;
20140;SDS011;10231;47.702;9.826;2023-03-24T10:40:59;6.13;;;5.63;;
20140;SDS011;10231;47.702;9.826;2023-03-24T10:43:26;6.57;;;5.90;;
20140;SDS011;10231;47.702;9.826;2023-03-24T10:45:53;6.73;;;5.50;;
20140;SDS011;10231;47.702;9.826;2023-03-24T10:51:14;7.07;;;6.37;;
20140;SDS011;10231;47.702;9.826;2023-03-24T10:53:43;6.00;;;5.40;;
20140;SDS011;10231;47.702;9.826;2023-03-24T10:56:16;7.03;;;5.90;;
20140;SDS011;10231;47.702;9.826;2023-03-24T10:59:01;5.67;;;5.17;;
20140;SDS011;10231;47.702;9.826;2023-03-24T11:01:30;6.60;;;6.00;;
20140;SDS011;10231;47.702;9.826;2023-03-24T11:03:59;6.37;;;5.77;;
20140;SDS011;10231;47.702;9.826;2023-03-24T11:06:28;6.17;;;5.37;;
20140;SDS011;10231;47.702;9.826;2023-03-24T11:11:44;6.93;;;5.90;;
20140;SDS011;10231;47.702;9.826;2023-03-24T11:14:17;6.63;;;5.93;;
20140;SDS011;10231;47.702;9.826;2023-03-24T11:16:49;5.90;;;5.27;;
20140;SDS011;10231;47.702;9.826;2023-03-24T11:19:19;6.30;;;5.33;;
20140;SDS011;10231;47.702;9.826;2023-03-24T11:21:47;6.70;;;5.77;;
20140;SDS011;10231;47.702;9.826;2023-03-24T11:24:15;6.03;;;5.53;;
20140;SDS011;10231;47.702;9.826;2023-03-24T11:26:44;5.90;;;5.33;;
20140;SDS011;10231;47.702;9.826;2023-03-24T11:29:14;6.60;;;4.50;;
20140;SDS011;10231;47.702;9.826;2023-03-24T11:31:55;5.53;;;4.93;;
20140;SDS011;10231;47.702;9.826;2023-03-24T11:34:33;5.60;;;4.97;;
20140;SDS011;10231;47.702;9.826;2023-03-24T11:37:22;5.33;;;4.83;;
20140;SDS011;10231;47.702;9.826;2023-03-24T11:42:45;6.27;;;5.47;;
20140;SDS011;10231;47.702;9.826;2023-03-24T11:45:45;5.40;;;4.90;;
20140;SDS011;10231;47.702;9.826;2023-03-24T11:50:59;6.00;;;5.50;;
20140;SDS011;10231;47.702;9.826;2023-03-24T11:53:37;6.00;;;5.47;;
20140;SDS011;10231;47.702;9.826;2023-03-24T11:56:26;6.37;;;5.77;;
20140;SDS011;10231;47.702;9.826;2023-03-24T12:02:03;7.00;;;6.00;;
20140;SDS011;10231;47.702;9.826;2023-03-24T12:05:09;5.17;;;4.67;;
20140;SDS011;10231;47.702;9.826;2023-03-24T12:07:49;4.90;;;4.50;;
20140;SDS011;10231;47.702;9.826;2023-03-24T12:11:02;7.00;;;5.90;;
20140;SDS011;10231;47.702;9.826;2023-03-24T12:13:38;5.77;;;5.27;;
20140;SDS011;10231;47.702;9.826;2023-03-24T12:19:19;5.63;;;5.13;;
20140;SDS011;10231;47.702;9.826;2023-03-24T12:24:41;5.60;;;5.10;;
20140;SDS011;10231;47.702;9.826;2023-03-24T12:33:06;6.13;;;5.33;;
20140;SDS011;10231;47.702;9.826;2023-03-24T12:36:38;4.70;;;4.40;;
20140;SDS011;10231;47.702;9.826;2023-03-24T12:41:56;5.30;;;4.80;;
20140;SDS011;10231;47.702;9.826;2023-03-24T12:44:31;5.57;;;5.03;;
20140;SDS011;10231;47.702;9.826;2023-03-24T12:47:28;5.23;;;4.73;;
20140;SDS011;10231;47.702;9.826;2023-03-24T12:50:10;5.37;;;4.87;;
20140;SDS011;10231;47.702;9.826;2023-03-24T12:58:20;4.83;;;4.43;;
20140;SDS011;10231;47.702;9.826;2023-03-24T13:01:00;5.13;;;3.83;;
20140;SDS011;10231;47.702;9.826;2023-03-24T13:03:38;4.33;;;4.00;;
20140;SDS011;10231;47.702;9.826;2023-03-24T13:06:26;3.97;;;3.67;;
20140;SDS011;10231;47.702;9.826;2023-03-24T13:09:10;3.77;;;3.47;;
20140;SDS011;10231;47.702;9.826;2023-03-24T13:11:47;4.60;;;4.20;;
20140;SDS011;10231;47.702;9.826;2023-03-24T13:14:24;4.13;;;3.80;;
20140;SDS011;10231;47.702;9.826;2023-03-24T13:16:55;3.87;;;3.53;;
20140;SDS011;10231;47.702;9.826;2023-03-24T13:19:28;3.97;;;3.67;;
20140;SDS011;10231;47.702;9.826;2023-03-24T13:21:55;3.90;;;3.60;;
20140;SDS011;10231;47.702;9.826;2023-03-24T13:24:22;4.67;;;4.00;;
20140;SDS011;10231;47.702;9.826;2023-03-24T13:37:36;3.77;;;3.47;;
20140;SDS011;10231;47.702;9.826;2023-03-24T13:40:17;3.70;;;3.40;;
20140;SDS011;10231;47.702;9.826;2023-03-24T13:42:47;3.47;;;3.17;;
20140;SDS011;10231;47.702;9.826;2023-03-24T13:45:35;4.50;;;2.80;;
20140;SDS011;10231;47.702;9.826;2023-03-24T13:50:37;3.07;;;2.60;;
20140;SDS011;10231;47.702;9.826;2023-03-24T13:53:13;2.00;;;1.90;;
20140;SDS011;10231;47.702;9.826;2023-03-24T13:55:42;2.57;;;2.37;;
20140;SDS011;10231;47.702;9.826;2023-03-24T13:58:20;1.80;;;1.70;;
20140;SDS011;10231;47.702;9.826;2023-03-24T14:01:35;2.07;;;1.97;;
20140;SDS011;10231;47.702;9.826;2023-03-24T14:03:40;2.10;;;1.90;;
20140;SDS011;10231;47.702;9.826;2023-03-24T14:06:09;1.43;;;1.33;;
20140;SDS011;10231;47.702;9.826;2023-03-24T14:16:41;1.03;;;0.93;;
20140;SDS011;10231;47.702;9.826;2023-03-24T14:19:09;1.37;;;1.00;;
20140;SDS011;10231;47.702;9.826;2023-03-24T14:21:43;5.97;;;1.27;;
20140;SDS011;10231;47.702;9.826;2023-03-24T14:24:20;0.97;;;0.90;;
20140;SDS011;10231;47.702;9.826;2023-03-24T14:26:48;0.80;;;0.80;;
20140;SDS011;10231;47.702;9.826;2023-03-24T14:32:02;2.13;;;1.23;;
20140;SDS011;10231;47.702;9.826;2023-03-24T14:34:28;1.30;;;1.20;;
20140;SDS011;10231;47.702;9.826;2023-03-24T14:37:01;1.47;;;0.90;;
20140;SDS011;10231;47.702;9.826;2023-03-24T14:39:35;1.20;;;1.10;;
20140;SDS011;10231;47.702;9.826;2023-03-24T14:42:24;1.23;;;1.10;;
20140;SDS011;10231;47.702;9.826;2023-03-24T14:45:00;2.00;;;1.20;;
20140;SDS011;10231;47.702;9.826;2023-03-24T14:47:29;1.40;;;1.30;;
20140;SDS011;10231;47.702;9.826;2023-03-24T14:50:10;1.10;;;1.07;;
20140;SDS011;10231;47.702;9.826;2023-03-24T14:52:43;1.20;;;1.10;;
20140;SDS011;10231;47.702;9.826;2023-03-24T14:55:15;0.87;;;0.87;;
20140;SDS011;10231;47.702;9.826;2023-03-24T14:57:53;1.30;;;0.80;;
20140;SDS011;10231;47.702;9.826;2023-03-24T15:00:22;1.90;;;0.70;;
20140;SDS011;10231;47.702;9.826;2023-03-24T15:02:59;1.00;;;0.93;;
20140;SDS011;10231;47.702;9.826;2023-03-24T15:05:34;0.97;;;0.60;;
20140;SDS011;10231;47.702;9.826;2023-03-24T15:08:12;0.60;;;0.60;;
20140;SDS011;10231;47.702;9.826;2023-03-24T15:18:34;1.93;;;1.03;;
20140;SDS011;10231;47.702;9.826;2023-03-24T15:21:14;1.73;;;1.63;;
20140;SDS011;10231;47.702;9.826;2023-03-24T15:23:46;0.93;;;0.93;;
20140;SDS011;10231;47.702;9.826;2023-03-24T15:26:12;1.13;;;1.03;;
20140;SDS011;10231;47.702;9.826;2023-03-24T15:28:39;1.93;;;1.70;;
20140;SDS011;10231;47.702;9.826;2023-03-24T15:31:05;1.20;;;1.20;;
20140;SDS011;10231;47.702;9.826;2023-03-24T15:33:40;1.43;;;1.33;;
20140;SDS011;10231;47.702;9.826;2023-03-24T15:36:19;2.07;;;1.40;;
20140;SDS011;10231;47.702;9.826;2023-03-24T15:38:48;3.00;;;2.70;;
20140;SDS011;10231;47.702;9.826;2023-03-24T15:41:16;1.30;;;1.20;;
20140;SDS011;10231;47.702;9.826;2023-03-24T15:43:47;7.30;;;1.53;;
20140;SDS011;10231;47.702;9.826;2023-03-24T15:46:19;15.33;;;1.83;;
20140;SDS011;10231;47.702;9.826;2023-03-24T15:48:49;1.57;;;1.20;;
20140;SDS011;10231;47.702;9.826;2023-03-24T15:51:16;1.57;;;1.30;;
20140;SDS011;10231;47.702;9.826;2023-03-24T15:53:46;0.93;;;0.93;;
20140;SDS011;10231;47.702;9.826;2023-03-24T15:56:25;0.80;;;0.80;;
20140;SDS011;10231;47.702;9.826;2023-03-24T15:59:16;2.00;;;0.50;;
20140;SDS011;10231;47.702;9.826;2023-03-24T16:01:41;0.57;;;0.57;;
20140;SDS011;10231;47.702;9.826;2023-03-24T16:04:10;0.70;;;0.70;;
20140;SDS011;10231;47.702;9.826;2023-03-24T16:06:39;1.30;;;1.07;;
20140;SDS011;10231;47.702;9.826;2023-03-24T16:09:13;0.80;;;0.80;;
20140;SDS011;10231;47.702;9.826;2023-03-24T16:11:40;0.80;;;0.80;;
20140;SDS011;10231;47.702;9.826;2023-03-24T16:14:20;1.03;;;0.97;;
20140;SDS011;10231;47.702;9.826;2023-03-24T16:16:48;0.70;;;0.70;;
20140;SDS011;10231;47.702;9.826;2023-03-24T16:19:18;1.00;;;1.00;;
20140;SDS011;10231;47.702;9.826;2023-03-24T16:21:43;0.60;;;0.60;;
20140;SDS011;10231;47.702;9.826;2023-03-24T16:24:09;0.70;;;0.70;;
20140;SDS011;10231;47.702;9.826;2023-03-24T16:26:34;0.57;;;0.57;;
20140;SDS011;10231;47.702;9.826;2023-03-24T16:31:47;0.70;;;0.70;;
20140;SDS011;10231;47.702;9.826;2023-03-24T16:34:14;1.23;;;0.70;;
20140;SDS011;10231;47.702;9.826;2023-03-24T16:36:42;0.50;;;0.50;;
20140;SDS011;10231;47.702;9.826;2023-03-24T16:39:14;0.60;;;0.60;;
20140;SDS011;10231;47.702;9.826;2023-03-24T16:41:42;0.50;;;0.50;;
20140;SDS011;10231;47.702;9.826;2023-03-24T16:44:08;0.67;;;0.67;;
20140;SDS011;10231;47.702;9.826;2023-03-24T16:46:35;1.03;;;0.80;;
20140;SDS011;10231;47.702;9.826;2023-03-24T16:49:02;1.13;;;1.10;;
20140;SDS011;10231;47.702;9.826;2023-03-24T16:51:30;0.70;;;0.70;;
20140;SDS011;10231;47.702;9.826;2023-03-24T16:53:56;0.90;;;0.90;;
20140;SDS011;10231;47.702;9.826;2023-03-24T16:56:22;0.87;;;0.87;;
20140;SDS011;10231;47.702;9.826;2023-03-24T16:58:49;1.23;;;0.50;;
20140;SDS011;10231;47.702;9.826;2023-03-24T17:01:29;0.70;;;0.70;;
20140;SDS011;10231;47.702;9.826;2023-03-24T17:04:07;0.93;;;0.93;;
20140;SDS011;10231;47.702;9.826;2023-03-24T17:06:44;2.13;;;1.07;;
20140;SDS011;10231;47.702;9.826;2023-03-24T17:09:13;0.80;;;0.77;;
20140;SDS011;10231;47.702;9.826;2023-03-24T17:11:40;2.20;;;0.80;;
20140;SDS011;10231;47.702;9.826;2023-03-24T17:14:07;0.80;;;0.77;;
20140;SDS011;10231;47.702;9.826;2023-03-24T17:16:36;1.43;;;1.33;;
20140;SDS011;10231;47.702;9.826;2023-03-24T17:19:07;0.60;;;0.60;;
20140;SDS011;10231;47.702;9.826;2023-03-24T17:21:35;0.93;;;0.93;;
20140;SDS011;10231;47.702;9.826;2023-03-24T17:24:03;0.77;;;0.77;;
20140;SDS011;10231;47.702;9.826;2023-03-24T17:26:30;0.77;;;0.70;;